createdAt,value
2023-07-16T00:00:19.738Z,22.20
2023-07-16T00:01:31.039Z,22.16
2023-07-16T00:03:55.127Z,22.21
2023-07-16T00:06:22.752Z,22.08
2023-07-16T00:07:31.778Z,21.95
2023-07-16T00:09:58.095Z,22.03
2023-07-16T00:12:25.760Z,22.07
2023-07-16T00:14:51.680Z,22.07
2023-07-16T00:17:17.397Z,22.13
2023-07-16T00:19:44.533Z,22.17
2023-07-16T00:22:15.997Z,22.16
2023-07-16T00:23:25.679Z,22.05
2023-07-16T00:24:35.572Z,22.01
2023-07-16T00:25:44.668Z,21.96
2023-07-16T00:26:54.603Z,21.92
2023-07-16T00:28:05.771Z,21.88
2023-07-16T00:29:15.670Z,21.88
2023-07-16T00:31:41.215Z,21.88
2023-07-16T00:34:05.221Z,21.77
2023-07-16T00:36:30.092Z,21.69
2023-07-16T00:38:55.728Z,21.72
2023-07-16T00:40:08.205Z,21.62
2023-07-16T00:42:33.115Z,21.78
2023-07-16T00:44:59.065Z,21.77
2023-07-16T00:47:33.157Z,21.69
2023-07-16T00:49:59.800Z,21.70
2023-07-16T00:51:08.909Z,21.57
2023-07-16T00:53:40.257Z,21.62
2023-07-16T00:56:12.141Z,21.52
2023-07-16T00:57:21.821Z,21.40
2023-07-16T00:59:46.864Z,21.51
2023-07-16T01:02:14.405Z,21.52
2023-07-16T01:04:41.844Z,21.54
2023-07-16T01:07:13.719Z,21.57
2023-07-16T01:09:51.975Z,21.61
2023-07-16T01:11:03.933Z,21.52
2023-07-16T01:12:15.588Z,21.54
2023-07-16T01:13:26.357Z,21.55
2023-07-16T01:14:35.983Z,21.58
2023-07-16T01:17:07.167Z,21.72
2023-07-16T01:19:35.454Z,21.73
2023-07-16T01:20:45.345Z,21.63
2023-07-16T01:23:49.864Z,21.67
2023-07-16T01:26:46.509Z,21.70
2023-07-16T01:29:54.170Z,21.68
2023-07-16T01:32:23.138Z,21.66
2023-07-16T01:33:34.694Z,21.54
2023-07-16T01:34:44.739Z,21.52
2023-07-16T01:37:13.302Z,21.62
2023-07-16T01:38:24.391Z,21.51
2023-07-16T01:40:52.914Z,21.60
2023-07-16T01:43:19.361Z,21.61
2023-07-16T01:44:30.925Z,21.50
2023-07-16T01:47:08.594Z,21.69
2023-07-16T01:48:32.992Z,21.59
2023-07-16T01:51:06.136Z,21.73
2023-07-16T01:53:32.204Z,21.76
2023-07-16T01:55:57.326Z,21.73
2023-07-16T01:58:22.464Z,21.69
2023-07-16T02:00:49.886Z,21.66
2023-07-16T02:03:14.962Z,21.59
2023-07-16T02:05:40.833Z,21.62
2023-07-16T02:08:07.561Z,21.62
2023-07-16T02:09:19.103Z,21.53
2023-07-16T02:11:44.991Z,21.64
2023-07-16T02:12:55.189Z,21.54
2023-07-16T02:14:05.646Z,21.55
2023-07-16T02:16:33.106Z,21.65
2023-07-16T02:18:58.930Z,21.62
2023-07-16T02:20:11.968Z,21.56
2023-07-16T02:22:37.936Z,21.68
2023-07-16T02:25:09.572Z,21.64
2023-07-16T02:27:55.653Z,21.63
2023-07-16T02:30:28.192Z,21.59
2023-07-16T02:32:53.640Z,21.69
2023-07-16T02:35:20.016Z,21.82
2023-07-16T02:37:51.148Z,21.94
2023-07-16T02:40:20.511Z,22.06
2023-07-16T02:42:45.952Z,22.07
2023-07-16T02:45:23.247Z,22.17
2023-07-16T02:47:49.666Z,22.17
2023-07-16T02:50:13.298Z,22.22
2023-07-16T02:52:40.762Z,22.36
2023-07-16T02:53:51.746Z,22.34
2023-07-16T02:55:01.626Z,22.41
2023-07-16T02:57:27.514Z,22.69
2023-07-16T02:59:58.784Z,22.81
2023-07-16T03:01:08.119Z,22.76
2023-07-16T03:03:34.749Z,22.84
2023-07-16T03:04:48.183Z,22.83
2023-07-16T03:07:14.133Z,23.14
2023-07-16T03:08:23.874Z,23.08
2023-07-16T03:09:33.751Z,23.13
2023-07-16T03:12:18.757Z,23.27
2023-07-16T03:14:46.343Z,23.38
2023-07-16T03:17:10.985Z,23.46
2023-07-16T03:18:30.237Z,23.44
2023-07-16T03:19:39.505Z,23.53
2023-07-16T03:22:10.978Z,23.80
2023-07-16T03:23:20.752Z,23.76
2023-07-16T03:25:47.072Z,24.02
2023-07-16T03:27:08.283Z,23.97
2023-07-16T03:29:26.248Z,24.30
2023-07-16T03:31:51.182Z,24.49
2023-07-16T03:34:17.404Z,24.56
2023-07-16T03:36:43.912Z,24.60
2023-07-16T03:37:54.394Z,24.56
2023-07-16T03:39:05.280Z,24.59
2023-07-16T03:41:34.243Z,24.85
2023-07-16T03:44:00.154Z,24.95
2023-07-16T03:46:27.917Z,25.00
2023-07-16T03:47:37.611Z,24.96
2023-07-16T03:50:04.224Z,25.22
2023-07-16T03:52:30.543Z,25.41
2023-07-16T03:54:56.605Z,25.59
2023-07-16T03:57:23.007Z,25.72
2023-07-16T03:59:47.556Z,25.95
2023-07-16T04:00:57.349Z,25.92
2023-07-16T04:02:07.431Z,26.00
2023-07-16T04:04:35.539Z,26.26
2023-07-16T04:07:01.045Z,26.36
2023-07-16T04:08:10.641Z,26.32
2023-07-16T04:10:43.023Z,26.55
2023-07-16T04:11:52.970Z,26.49
2023-07-16T04:14:17.519Z,26.71
2023-07-16T04:16:42.384Z,26.94
2023-07-16T04:17:51.957Z,26.94
2023-07-16T04:19:01.591Z,27.12
2023-07-16T04:21:26.623Z,27.41
2023-07-16T04:23:52.913Z,27.54
2023-07-16T04:26:23.469Z,27.72
2023-07-16T04:28:47.456Z,27.88
2023-07-16T04:29:57.284Z,27.85
2023-07-16T04:32:26.427Z,27.95
2023-07-16T04:33:36.323Z,27.88
2023-07-16T04:34:46.791Z,27.89
2023-07-16T04:35:55.341Z,27.90
2023-07-16T04:38:21.302Z,28.08
2023-07-16T04:39:30.063Z,28.00
2023-07-16T04:40:39.720Z,28.02
2023-07-16T04:43:04.422Z,28.10
2023-07-16T04:44:14.117Z,28.05
2023-07-16T04:45:24.108Z,28.09
2023-07-16T04:47:50.275Z,28.30
2023-07-16T04:48:58.837Z,28.21
2023-07-16T04:50:09.103Z,28.23
2023-07-16T04:52:34.589Z,28.33
2023-07-16T04:55:06.224Z,28.41
2023-07-16T04:57:34.886Z,28.51
2023-07-16T05:00:08.655Z,28.62
2023-07-16T05:01:17.609Z,28.62
2023-07-16T05:04:01.049Z,28.88
2023-07-16T05:06:27.193Z,29.01
2023-07-16T05:08:52.808Z,29.15
2023-07-16T05:11:26.273Z,29.34
2023-07-16T05:14:10.342Z,29.40
2023-07-16T05:16:37.354Z,29.46
2023-07-16T05:19:21.075Z,29.57
2023-07-16T05:20:30.270Z,29.50
2023-07-16T05:21:40.201Z,29.56
2023-07-16T05:22:49.173Z,29.60
2023-07-16T05:25:15.027Z,29.76
2023-07-16T05:27:39.487Z,29.84
2023-07-16T05:30:07.692Z,29.87
2023-07-16T05:32:31.491Z,29.96
2023-07-16T05:34:56.972Z,30.05
2023-07-16T05:37:22.235Z,30.05
2023-07-16T05:39:47.129Z,30.12
2023-07-16T05:42:19.586Z,30.06
2023-07-16T05:44:45.929Z,30.06
2023-07-16T05:47:29.218Z,30.17
2023-07-16T05:49:54.393Z,30.31
2023-07-16T05:52:19.658Z,30.41
2023-07-16T05:54:46.427Z,30.49
2023-07-16T05:57:10.889Z,30.62
2023-07-16T05:59:37.195Z,30.70
2023-07-16T06:02:08.071Z,30.76
2023-07-16T06:04:34.631Z,30.83
2023-07-16T06:06:58.944Z,30.91
2023-07-16T06:09:25.638Z,31.05
2023-07-16T06:11:51.190Z,31.13
2023-07-16T06:14:16.254Z,31.15
2023-07-16T06:16:42.020Z,31.16
2023-07-16T06:19:07.583Z,31.24
2023-07-16T06:21:32.404Z,31.24
2023-07-16T06:23:58.567Z,31.26
2023-07-16T06:26:27.074Z,31.24
2023-07-16T06:28:52.277Z,31.32
2023-07-16T06:31:17.729Z,31.48
2023-07-16T06:33:42.556Z,31.56
2023-07-16T06:36:06.465Z,31.56
2023-07-16T06:38:30.576Z,31.65
2023-07-16T06:40:55.460Z,31.61
2023-07-16T06:43:21.273Z,31.70
2023-07-16T06:45:45.599Z,31.71
2023-07-16T06:48:11.415Z,31.79
2023-07-16T06:50:36.602Z,31.82
2023-07-16T06:53:07.487Z,31.75
2023-07-16T06:55:33.913Z,31.86
2023-07-16T06:57:58.751Z,32.01
2023-07-16T07:00:24.375Z,31.98
2023-07-16T07:02:56.030Z,32.06
2023-07-16T07:05:20.218Z,32.15
2023-07-16T07:07:45.731Z,32.22
2023-07-16T07:10:17.166Z,32.20
2023-07-16T07:12:42.249Z,32.15
2023-07-16T07:15:10.021Z,32.12
2023-07-16T07:17:36.259Z,32.29
2023-07-16T07:20:02.092Z,32.57
2023-07-16T07:22:25.927Z,32.61
2023-07-16T07:24:51.495Z,32.52
2023-07-16T07:27:16.602Z,32.50
2023-07-16T07:29:40.963Z,32.46
2023-07-16T07:32:09.239Z,32.44
2023-07-16T07:34:33.047Z,32.48
2023-07-16T07:37:05.423Z,32.53
2023-07-16T07:39:30.699Z,32.58
2023-07-16T07:41:54.717Z,32.61
2023-07-16T07:44:18.409Z,32.50
2023-07-16T07:46:42.193Z,32.45
2023-07-16T07:49:07.624Z,32.36
2023-07-16T07:51:32.283Z,32.20
2023-07-16T07:53:58.382Z,31.83
2023-07-16T07:56:24.211Z,31.48
2023-07-16T07:57:33.573Z,31.30
2023-07-16T07:59:58.236Z,31.08
2023-07-16T08:02:25.109Z,31.06
2023-07-16T08:04:53.809Z,31.14
2023-07-16T08:07:19.901Z,31.14
2023-07-16T08:09:46.135Z,31.22
2023-07-16T08:10:56.882Z,31.10
2023-07-16T08:12:06.742Z,30.82
2023-07-16T08:13:16.380Z,30.56
2023-07-16T08:14:25.225Z,30.20
2023-07-16T08:16:51.892Z,29.88
2023-07-16T08:18:00.934Z,29.69
2023-07-16T08:20:27.376Z,29.75
2023-07-16T08:22:54.515Z,29.82
2023-07-16T08:25:18.721Z,29.81
2023-07-16T08:27:47.175Z,29.56
2023-07-16T08:30:11.644Z,29.58
2023-07-16T08:32:38.048Z,29.73
2023-07-16T08:35:16.580Z,29.82
2023-07-16T08:37:41.063Z,29.84
2023-07-16T08:40:08.287Z,29.87
2023-07-16T08:42:34.226Z,29.76
2023-07-16T08:45:04.238Z,29.46
2023-07-16T08:47:30.141Z,28.93
2023-07-16T08:49:57.230Z,28.91
2023-07-16T08:52:29.753Z,28.67
2023-07-16T08:54:54.635Z,28.68
2023-07-16T08:57:22.555Z,28.81
2023-07-16T08:59:50.430Z,28.90
2023-07-16T09:02:20.560Z,29.06
2023-07-16T09:03:31.003Z,29.02
2023-07-16T09:05:55.775Z,29.23
2023-07-16T09:08:20.540Z,29.38
2023-07-16T09:09:36.008Z,29.35
2023-07-16T09:12:19.962Z,29.41
2023-07-16T09:14:48.995Z,29.34
2023-07-16T09:17:19.470Z,29.32
2023-07-16T09:19:47.093Z,29.31
2023-07-16T09:22:15.692Z,29.30
2023-07-16T09:24:44.692Z,29.31
2023-07-16T09:27:16.502Z,29.30
2023-07-16T09:29:41.529Z,29.28
2023-07-16T09:32:07.461Z,29.32
2023-07-16T09:34:39.447Z,29.35
2023-07-16T09:37:07.486Z,29.42
2023-07-16T09:39:34.140Z,29.41
2023-07-16T09:42:03.113Z,29.38
2023-07-16T09:44:28.445Z,29.48
2023-07-16T09:46:54.215Z,29.53
2023-07-16T09:49:31.284Z,29.58
2023-07-16T09:52:06.480Z,29.51
2023-07-16T09:53:16.660Z,29.35
2023-07-16T09:55:43.732Z,29.40
2023-07-16T09:58:20.040Z,29.37
2023-07-16T10:00:50.101Z,29.38
2023-07-16T10:03:18.068Z,29.45
2023-07-16T10:06:12.489Z,29.56
2023-07-16T10:08:40.359Z,29.63
2023-07-16T10:11:19.449Z,29.61
2023-07-16T10:13:50.329Z,29.57
2023-07-16T10:16:23.425Z,29.57
2023-07-16T10:18:55.090Z,29.61
2023-07-16T10:21:35.508Z,29.42
2023-07-16T10:24:06.015Z,29.24
2023-07-16T10:26:39.126Z,29.09
2023-07-16T10:29:05.741Z,28.81
2023-07-16T10:31:33.931Z,28.69
2023-07-16T10:34:06.228Z,28.57
2023-07-16T10:36:41.984Z,28.61
2023-07-16T10:39:08.108Z,28.67
2023-07-16T10:40:18.807Z,28.57
2023-07-16T10:41:27.823Z,28.60
2023-07-16T10:43:54.637Z,28.78
2023-07-16T10:46:28.165Z,28.85
2023-07-16T10:48:56.676Z,28.89
2023-07-16T10:51:28.106Z,28.87
2023-07-16T10:55:24.636Z,28.77
2023-07-16T10:59:23.875Z,28.75
2023-07-16T11:03:18.113Z,28.78
2023-07-16T11:07:14.913Z,28.68
2023-07-16T11:11:10.247Z,28.73
2023-07-16T11:15:05.770Z,28.72
2023-07-16T11:18:59.582Z,28.78
2023-07-16T11:22:53.610Z,28.86
2023-07-16T11:25:45.284Z,28.75
2023-07-16T11:28:16.855Z,28.89
2023-07-16T11:32:09.020Z,28.95
2023-07-16T11:36:30.406Z,29.00
2023-07-16T11:40:22.875Z,28.96
2023-07-16T11:44:20.049Z,28.98
2023-07-16T11:48:20.974Z,29.00
2023-07-16T11:52:12.563Z,29.02
2023-07-16T11:56:05.903Z,29.06
2023-07-16T11:59:58.860Z,29.03
2023-07-16T12:04:09.801Z,29.04
2023-07-16T12:08:05.931Z,28.95
2023-07-16T12:12:04.368Z,28.96
2023-07-16T12:14:35.691Z,28.98
2023-07-16T12:18:28.455Z,29.05
2023-07-16T12:21:08.647Z,28.96
2023-07-16T12:23:33.620Z,29.08
2023-07-16T12:27:26.494Z,29.02
2023-07-16T12:30:03.654Z,28.93
2023-07-16T12:32:28.595Z,29.06
2023-07-16T12:36:21.127Z,29.05
2023-07-16T12:39:00.220Z,28.97
2023-07-16T12:40:10.062Z,29.00
2023-07-16T12:41:19.304Z,28.99
2023-07-16T12:43:44.347Z,29.11
2023-07-16T12:46:21.770Z,29.03
2023-07-16T12:47:31.625Z,29.07
2023-07-16T12:49:56.054Z,29.22
2023-07-16T12:52:33.203Z,29.12
2023-07-16T12:54:59.217Z,29.25
2023-07-16T12:58:50.883Z,29.28
2023-07-16T13:02:42.624Z,29.27
2023-07-16T13:06:36.161Z,29.32
2023-07-16T13:09:00.867Z,29.34
2023-07-16T13:11:26.285Z,29.34
2023-07-16T13:13:49.968Z,29.33
2023-07-16T13:16:24.228Z,29.35
2023-07-16T13:18:48.020Z,29.37
2023-07-16T13:21:11.915Z,29.39
2023-07-16T13:23:37.022Z,29.44
2023-07-16T13:24:46.048Z,29.34
2023-07-16T13:27:24.741Z,29.43
2023-07-16T13:29:51.926Z,29.40
2023-07-16T13:32:17.317Z,29.39
2023-07-16T13:34:42.043Z,29.40
2023-07-16T13:37:07.423Z,29.41
2023-07-16T13:39:32.928Z,29.38
2023-07-16T13:42:12.702Z,29.38
2023-07-16T13:44:25.636Z,29.38
2023-07-16T13:46:49.751Z,29.33
2023-07-16T13:49:15.216Z,29.33
2023-07-16T13:51:39.724Z,29.34
2023-07-16T13:54:04.596Z,29.38
2023-07-16T13:56:30.610Z,29.38
2023-07-16T13:58:56.227Z,29.43
2023-07-16T14:01:33.493Z,29.43
2023-07-16T14:03:59.426Z,29.48
2023-07-16T14:06:26.002Z,29.51
2023-07-16T14:09:09.454Z,29.54
2023-07-16T14:11:41.406Z,29.56
2023-07-16T14:14:06.925Z,29.55
2023-07-16T14:16:32.252Z,29.57
2023-07-16T14:18:57.987Z,29.59
2023-07-16T14:21:31.147Z,29.54
2023-07-16T14:22:44.515Z,29.44
2023-07-16T14:25:10.752Z,29.49
2023-07-16T14:27:35.474Z,29.47
2023-07-16T14:30:05.848Z,29.49
2023-07-16T14:32:29.679Z,29.49
2023-07-16T14:34:54.302Z,29.51
2023-07-16T14:37:20.775Z,29.49
2023-07-16T14:39:46.693Z,29.47
2023-07-16T14:42:11.774Z,29.42
2023-07-16T14:44:36.129Z,29.44
2023-07-16T14:47:00.196Z,29.42
2023-07-16T14:49:25.324Z,29.42
2023-07-16T14:51:49.444Z,29.39
2023-07-16T14:54:16.441Z,29.36
2023-07-16T14:56:41.188Z,29.38
2023-07-16T14:59:28.160Z,29.44
2023-07-16T15:01:53.930Z,29.42
2023-07-16T15:04:19.098Z,29.44
2023-07-16T15:06:44.142Z,29.44
2023-07-16T15:09:09.875Z,29.40
2023-07-16T15:11:36.785Z,29.40
2023-07-16T15:14:00.726Z,29.39
2023-07-16T15:16:26.644Z,29.40
2023-07-16T15:18:51.414Z,29.37
2023-07-16T15:21:18.237Z,29.37
2023-07-16T15:23:45.371Z,29.35
2023-07-16T15:26:11.044Z,29.34
2023-07-16T15:28:38.723Z,29.33
2023-07-16T15:31:04.755Z,29.25
2023-07-16T15:33:50.675Z,29.24
2023-07-16T15:36:15.876Z,29.25
2023-07-16T15:38:40.172Z,29.20
2023-07-16T15:41:05.621Z,29.14
2023-07-16T15:43:29.934Z,29.13
2023-07-16T15:46:02.408Z,29.14
2023-07-16T15:48:29.024Z,29.15
2023-07-16T15:51:05.655Z,29.20
2023-07-16T15:53:29.409Z,29.22
2023-07-16T15:55:57.942Z,29.22
2023-07-16T15:58:22.474Z,29.23
2023-07-16T15:59:32.029Z,29.14
2023-07-16T16:01:58.215Z,29.24
2023-07-16T16:04:22.839Z,29.12
2023-07-16T16:07:06.858Z,29.04
2023-07-16T16:09:34.636Z,29.02
2023-07-16T16:12:05.374Z,28.97
2023-07-16T16:13:14.419Z,28.86
2023-07-16T16:15:45.655Z,28.92
2023-07-16T16:18:13.085Z,28.83
2023-07-16T16:19:24.820Z,28.69
2023-07-16T16:21:50.842Z,28.71
2023-07-16T16:24:23.896Z,28.71
2023-07-16T16:26:51.072Z,28.72
2023-07-16T16:29:18.122Z,28.73
2023-07-16T16:31:42.811Z,28.74
2023-07-16T16:34:12.142Z,28.77
2023-07-16T16:36:40.584Z,28.73
2023-07-16T16:39:05.397Z,28.71
2023-07-16T16:41:29.769Z,28.70
2023-07-16T16:43:56.453Z,28.65
2023-07-16T16:46:22.426Z,28.62
2023-07-16T16:48:57.955Z,28.61
2023-07-16T16:51:25.892Z,28.60
2023-07-16T16:53:51.179Z,28.58
2023-07-16T16:56:16.802Z,28.58
2023-07-16T16:57:28.035Z,28.48
2023-07-16T16:59:53.031Z,28.55
2023-07-16T17:02:16.804Z,28.56
2023-07-16T17:04:43.066Z,28.53
2023-07-16T17:07:17.046Z,28.52
2023-07-16T17:10:01.851Z,28.45
2023-07-16T17:12:43.855Z,28.34
2023-07-16T17:16:40.971Z,28.25
2023-07-16T17:20:32.996Z,28.11
2023-07-16T17:23:12.432Z,27.93
2023-07-16T17:26:58.762Z,27.92
2023-07-16T17:30:59.767Z,27.83
2023-07-16T17:33:24.438Z,27.81
2023-07-16T17:37:18.999Z,27.73
2023-07-16T17:41:10.896Z,27.70
2023-07-16T17:45:03.952Z,27.66
2023-07-16T17:48:56.228Z,27.59
2023-07-16T17:52:47.506Z,27.49
2023-07-16T17:56:38.286Z,27.43
2023-07-16T18:00:31.106Z,27.37
2023-07-16T18:04:23.873Z,27.29
2023-07-16T18:05:33.618Z,27.18
2023-07-16T18:07:59.730Z,27.25
2023-07-16T18:11:52.477Z,27.17
2023-07-16T18:15:44.303Z,27.11
2023-07-16T18:19:43.404Z,27.01
2023-07-16T18:23:36.039Z,26.98
2023-07-16T18:27:30.211Z,26.91
2023-07-16T18:31:24.393Z,26.86
2023-07-16T18:35:15.596Z,26.74
2023-07-16T18:39:06.495Z,26.66
2023-07-16T18:43:00.184Z,26.57
2023-07-16T18:46:52.930Z,26.50
2023-07-16T18:51:04.774Z,26.44
2023-07-16T18:54:57.683Z,26.39
2023-07-16T18:58:48.490Z,26.28
2023-07-16T19:02:40.179Z,26.16
2023-07-16T19:06:33.985Z,26.10
2023-07-16T19:10:37.263Z,26.09
2023-07-16T19:14:28.456Z,26.05
2023-07-16T19:18:20.763Z,25.99
2023-07-16T19:22:19.045Z,25.92
2023-07-16T19:26:15.393Z,25.92
2023-07-16T19:28:41.085Z,25.94
2023-07-16T19:31:07.940Z,25.94
2023-07-16T19:33:32.732Z,25.96
2023-07-16T19:36:13.046Z,25.96
2023-07-16T19:38:29.563Z,25.93
2023-07-16T19:40:53.593Z,25.88
2023-07-16T19:43:20.256Z,25.83
2023-07-16T19:44:36.940Z,25.70
2023-07-16T19:47:04.551Z,25.77
2023-07-16T19:49:31.351Z,25.75
2023-07-16T19:51:58.624Z,25.73
2023-07-16T19:54:43.368Z,25.72
2023-07-16T19:57:09.310Z,25.73
2023-07-16T19:59:34.251Z,25.72
2023-07-16T20:02:01.645Z,25.69
2023-07-16T20:04:27.488Z,25.65
2023-07-16T20:07:09.196Z,25.63
2023-07-16T20:09:29.435Z,25.59
2023-07-16T20:11:54.323Z,25.56
2023-07-16T20:14:19.833Z,25.53
2023-07-16T20:16:43.796Z,25.47
2023-07-16T20:19:09.246Z,25.44
2023-07-16T20:21:34.308Z,25.40
2023-07-16T20:23:59.996Z,25.37
2023-07-16T20:26:26.391Z,25.37
2023-07-16T20:28:51.169Z,25.33
2023-07-16T20:31:15.086Z,25.36
2023-07-16T20:33:39.971Z,25.37
2023-07-16T20:36:09.838Z,25.37
2023-07-16T20:38:36.326Z,25.34
2023-07-16T20:41:02.282Z,25.33
2023-07-16T20:42:10.827Z,25.22
2023-07-16T20:43:19.737Z,25.21
2023-07-16T20:45:47.914Z,25.30
2023-07-16T20:48:19.071Z,25.30
2023-07-16T20:50:51.823Z,25.28
2023-07-16T20:53:17.530Z,25.31
2023-07-16T20:55:42.568Z,25.25
2023-07-16T20:58:12.966Z,25.21
2023-07-16T21:00:42.751Z,25.19
2023-07-16T21:03:08.645Z,25.15
2023-07-16T21:05:34.730Z,25.11
2023-07-16T21:08:04.950Z,25.10
2023-07-16T21:10:32.266Z,25.07
2023-07-16T21:13:03.731Z,25.07
2023-07-16T21:14:13.055Z,24.94
2023-07-16T21:16:39.477Z,25.05
2023-07-16T21:19:07.582Z,25.04
2023-07-16T21:21:42.266Z,25.02
2023-07-16T21:24:06.304Z,24.97
2023-07-16T21:25:16.049Z,24.86
2023-07-16T21:27:49.858Z,24.92
2023-07-16T21:30:14.164Z,24.89
2023-07-16T21:31:24.268Z,24.76
2023-07-16T21:33:48.636Z,24.81
2023-07-16T21:36:33.308Z,24.79
2023-07-16T21:38:59.787Z,24.76
2023-07-16T21:41:25.054Z,24.72
2023-07-16T21:43:56.638Z,24.67
2023-07-16T21:46:24.247Z,24.65
2023-07-16T21:48:49.176Z,24.67
2023-07-16T21:51:14.155Z,24.70
2023-07-16T21:53:39.153Z,24.71
2023-07-16T21:56:04.848Z,24.69
2023-07-16T21:58:36.977Z,24.70
2023-07-16T21:59:46.856Z,24.58
2023-07-16T22:02:11.675Z,24.65
2023-07-16T22:03:21.628Z,24.54
2023-07-16T22:05:45.524Z,24.62
2023-07-16T22:08:09.888Z,24.63
2023-07-16T22:09:19.655Z,24.54
2023-07-16T22:10:30.390Z,24.52
2023-07-16T22:11:40.460Z,24.50
2023-07-16T22:14:05.518Z,24.54
2023-07-16T22:16:30.649Z,24.57
2023-07-16T22:17:40.032Z,24.45
2023-07-16T22:20:04.767Z,24.56
2023-07-16T22:22:30.995Z,24.58
2023-07-16T22:23:40.631Z,24.48
2023-07-16T22:26:04.960Z,24.58
2023-07-16T22:27:15.623Z,24.46
2023-07-16T22:29:40.661Z,24.58
2023-07-16T22:30:51.511Z,24.49
2023-07-16T22:32:01.471Z,24.47
2023-07-16T22:33:11.728Z,24.48
2023-07-16T22:34:21.459Z,24.48
2023-07-16T22:35:30.681Z,24.48
2023-07-16T22:36:40.238Z,24.47
2023-07-16T22:39:04.107Z,24.59
2023-07-16T22:41:36.018Z,24.53
2023-07-16T22:42:46.979Z,24.40
2023-07-16T22:45:12.089Z,24.38
2023-07-16T22:46:21.344Z,24.21
2023-07-16T22:48:51.851Z,24.28
2023-07-16T22:50:00.723Z,24.15
2023-07-16T22:52:25.873Z,24.26
2023-07-16T22:54:52.678Z,24.27
2023-07-16T22:56:02.252Z,24.17
2023-07-16T22:57:11.607Z,24.14
2023-07-16T22:58:20.857Z,24.12
2023-07-16T22:59:31.557Z,24.11
2023-07-16T23:01:56.321Z,24.24
2023-07-16T23:04:22.355Z,24.26
2023-07-16T23:05:31.704Z,24.14
2023-07-16T23:06:41.433Z,24.16
2023-07-16T23:07:51.320Z,24.20
2023-07-16T23:09:01.115Z,24.23
2023-07-16T23:11:27.330Z,24.42
2023-07-16T23:13:52.738Z,24.46
2023-07-16T23:15:02.815Z,24.38
2023-07-16T23:16:13.049Z,24.39
2023-07-16T23:18:38.123Z,24.53
2023-07-16T23:21:01.942Z,24.57
2023-07-16T23:23:28.287Z,24.59
2023-07-16T23:24:36.968Z,24.49
2023-07-16T23:27:02.608Z,24.60
2023-07-16T23:28:19.647Z,24.48
2023-07-16T23:29:29.601Z,24.47
2023-07-16T23:31:55.712Z,24.53
2023-07-16T23:33:06.512Z,24.41
2023-07-16T23:34:15.425Z,24.43
2023-07-16T23:36:40.882Z,24.56
2023-07-16T23:37:50.083Z,24.44
2023-07-16T23:40:15.249Z,24.51
2023-07-16T23:42:42.404Z,24.44
2023-07-16T23:43:52.525Z,24.34
2023-07-16T23:45:03.972Z,24.36
2023-07-16T23:46:14.662Z,24.35
2023-07-16T23:47:24.944Z,24.34
2023-07-16T23:49:48.874Z,24.43
2023-07-16T23:52:14.980Z,24.43
2023-07-16T23:54:40.908Z,24.41
2023-07-16T23:55:58.236Z,24.30
2023-07-16T23:58:22.803Z,24.39
